createdAt,value
2023-08-21T00:01:33.166Z,12.20
2023-08-21T00:04:37.591Z,12.25
2023-08-21T00:07:40.555Z,15.48
2023-08-21T00:10:43.939Z,11.82
2023-08-21T00:13:49.144Z,12.40
2023-08-21T00:16:52.117Z,15.05
2023-08-21T00:19:57.711Z,13.38
2023-08-21T00:23:00.811Z,12.68
2023-08-21T00:26:03.792Z,12.05
2023-08-21T00:29:09.405Z,11.18
2023-08-21T00:32:13.719Z,11.10
2023-08-21T00:35:18.206Z,10.65
2023-08-21T00:38:21.101Z,11.25
2023-08-21T00:41:24.106Z,11.57
2023-08-21T00:44:27.118Z,15.38
2023-08-21T00:47:30.491Z,12.73
2023-08-21T00:50:34.964Z,11.55
2023-08-21T00:53:37.888Z,11.32
2023-08-21T00:56:41.136Z,10.35
2023-08-21T00:59:44.105Z,10.15
2023-08-21T01:02:47.232Z,10.68
2023-08-21T01:05:51.993Z,10.35
2023-08-21T01:08:59.653Z,10.85
2023-08-21T01:12:09.909Z,12.45
2023-08-21T01:15:12.887Z,11.65
2023-08-21T01:18:16.070Z,11.80
2023-08-21T01:21:20.969Z,12.05
2023-08-21T01:24:25.326Z,14.43
2023-08-21T01:27:28.237Z,11.88
2023-08-21T01:30:35.574Z,11.98
2023-08-21T01:33:44.514Z,12.40
2023-08-21T01:36:47.593Z,12.35
2023-08-21T01:39:51.936Z,12.52
2023-08-21T01:42:55.339Z,12.20
2023-08-21T01:45:58.333Z,14.80
2023-08-21T01:49:01.428Z,11.93
2023-08-21T01:52:04.448Z,14.15
2023-08-21T01:55:09.952Z,12.38
2023-08-21T01:58:12.888Z,13.07
2023-08-21T02:01:16.248Z,13.23
2023-08-21T02:04:19.263Z,12.35
2023-08-21T02:07:22.219Z,13.13
2023-08-21T02:10:26.639Z,14.60
2023-08-21T02:13:29.736Z,13.85
2023-08-21T02:16:32.751Z,13.60
2023-08-21T02:19:35.786Z,15.82
2023-08-21T02:22:39.159Z,14.25
2023-08-21T02:25:43.854Z,13.45
2023-08-21T02:28:46.983Z,14.15
2023-08-21T02:31:49.896Z,14.40
2023-08-21T02:34:52.827Z,13.55
2023-08-21T02:37:55.755Z,14.38
2023-08-21T02:41:00.019Z,14.75
2023-08-21T02:44:02.829Z,15.10
2023-08-21T02:47:05.958Z,15.10
2023-08-21T02:50:10.335Z,14.70
2023-08-21T02:53:13.311Z,14.30
2023-08-21T02:56:17.609Z,15.27
2023-08-21T02:59:20.547Z,15.30
2023-08-21T03:02:23.553Z,14.70
2023-08-21T03:05:26.508Z,15.25
2023-08-21T03:08:29.414Z,14.90
2023-08-21T03:11:33.632Z,16.77
2023-08-21T03:14:36.809Z,16.90
2023-08-21T03:17:39.791Z,14.73
2023-08-21T03:20:46.793Z,15.00
2023-08-21T03:23:49.784Z,15.35
2023-08-21T03:26:54.199Z,15.30
2023-08-21T03:29:57.206Z,14.77
2023-08-21T03:33:00.114Z,14.63
2023-08-21T03:36:03.432Z,14.80
2023-08-21T03:39:06.999Z,14.75
2023-08-21T03:42:11.358Z,13.63
2023-08-21T03:45:14.274Z,13.75
2023-08-21T03:48:17.267Z,14.32
2023-08-21T03:51:20.206Z,14.82
2023-08-21T03:54:23.204Z,16.27
2023-08-21T03:57:27.710Z,14.52
2023-08-21T04:00:30.604Z,14.48
2023-08-21T04:03:35.735Z,14.63
2023-08-21T04:06:38.738Z,13.15
2023-08-21T04:09:41.694Z,21.23
2023-08-21T04:12:48.637Z,15.23
2023-08-21T04:15:52.227Z,13.65
2023-08-21T04:18:55.253Z,18.48
2023-08-21T04:21:58.219Z,17.98
2023-08-21T04:25:02.460Z,14.02
2023-08-21T04:28:08.718Z,14.48
2023-08-21T04:31:11.644Z,13.93
2023-08-21T04:34:14.860Z,13.80
2023-08-21T04:37:17.901Z,13.35
2023-08-21T04:40:22.326Z,18.33
2023-08-21T04:43:26.852Z,13.95
2023-08-21T04:46:29.788Z,13.23
2023-08-21T04:49:32.817Z,14.32
2023-08-21T04:52:35.895Z,17.27
2023-08-21T04:55:41.491Z,13.40
2023-08-21T04:58:45.976Z,13.90
2023-08-21T05:01:48.915Z,16.60
2023-08-21T05:04:52.052Z,17.95
2023-08-21T05:07:55.626Z,14.07
2023-08-21T05:11:01.984Z,15.70
2023-08-21T05:14:06.523Z,18.00
2023-08-21T05:17:09.688Z,16.02
2023-08-21T05:20:15.903Z,15.35
2023-08-21T05:23:19.172Z,13.68
2023-08-21T05:26:22.483Z,14.95
2023-08-21T05:29:26.915Z,16.20
2023-08-21T05:32:30.070Z,14.73
2023-08-21T05:35:38.996Z,14.05
2023-08-21T05:38:42.260Z,15.88
2023-08-21T05:41:45.254Z,18.77
2023-08-21T05:44:49.834Z,15.15
2023-08-21T05:47:52.780Z,15.50
2023-08-21T05:50:56.049Z,14.57
2023-08-21T05:54:04.147Z,13.63
2023-08-21T05:57:10.265Z,19.60
2023-08-21T06:00:16.922Z,15.20
2023-08-21T06:03:20.828Z,21.65
2023-08-21T06:06:23.823Z,16.65
2023-08-21T06:09:26.672Z,20.60
2023-08-21T06:12:29.703Z,16.63
2023-08-21T06:15:34.296Z,18.65
2023-08-21T06:18:37.219Z,18.13
2023-08-21T06:21:40.380Z,20.80
2023-08-21T06:24:43.436Z,23.50
2023-08-21T06:27:59.078Z,21.10
2023-08-21T06:31:04.815Z,18.13
2023-08-21T06:34:09.174Z,14.35
2023-08-21T06:37:13.908Z,17.88
2023-08-21T06:40:16.900Z,16.42
2023-08-21T06:43:19.952Z,15.98
2023-08-21T06:46:24.466Z,15.13
2023-08-21T06:49:27.588Z,13.30
2023-08-21T06:52:33.395Z,15.52
2023-08-21T06:55:36.451Z,14.98
2023-08-21T06:58:39.360Z,15.55
2023-08-21T07:01:43.788Z,14.82
2023-08-21T07:04:46.820Z,17.35
2023-08-21T07:07:49.858Z,16.10
2023-08-21T07:10:59.779Z,20.88
2023-08-21T07:14:02.969Z,15.18
2023-08-21T07:17:07.434Z,20.35
2023-08-21T07:20:11.784Z,14.25
2023-08-21T07:23:15.204Z,15.15
2023-08-21T07:26:21.348Z,21.17
2023-08-21T07:29:24.608Z,15.85
2023-08-21T07:32:32.102Z,17.83
2023-08-21T07:35:35.208Z,14.80
2023-08-21T07:38:40.750Z,17.50
2023-08-21T07:41:43.574Z,18.08
2023-08-21T07:44:46.827Z,15.90
2023-08-21T07:48:01.211Z,20.08
2023-08-21T07:51:14.305Z,21.35
2023-08-21T07:54:18.360Z,18.42
2023-08-21T07:57:24.490Z,11.98
2023-08-21T08:00:27.579Z,16.58
2023-08-21T08:03:35.485Z,15.43
2023-08-21T08:06:38.732Z,16.40
2023-08-21T08:09:42.234Z,11.55
2023-08-21T08:12:45.801Z,14.82
2023-08-21T08:15:51.838Z,18.80
2023-08-21T08:18:56.322Z,16.67
2023-08-21T08:22:02.157Z,20.23
2023-08-21T08:25:08.766Z,18.40
2023-08-21T08:28:12.812Z,17.00
2023-08-21T08:31:19.535Z,17.63
2023-08-21T08:34:23.991Z,13.82
2023-08-21T08:37:26.954Z,15.75
2023-08-21T08:40:30.049Z,14.80
2023-08-21T08:43:34.050Z,13.30
2023-08-21T08:46:39.086Z,15.20
2023-08-21T08:49:43.549Z,14.45
2023-08-21T08:52:53.738Z,10.90
2023-08-21T08:56:00.782Z,11.85
2023-08-21T08:59:04.897Z,23.73
2023-08-21T09:02:07.970Z,12.77
2023-08-21T09:05:13.969Z,19.38
2023-08-21T09:08:19.842Z,15.80
2023-08-21T09:11:28.126Z,9.70
2023-08-21T09:14:32.232Z,10.85
2023-08-21T09:17:37.121Z,13.43
2023-08-21T09:20:45.020Z,10.95
2023-08-21T09:23:48.200Z,14.15
2023-08-21T09:26:51.762Z,9.85
2023-08-21T09:29:58.736Z,11.48
2023-08-21T09:33:02.277Z,10.18
2023-08-21T09:36:10.309Z,11.40
2023-08-21T09:39:18.417Z,9.15
2023-08-21T09:42:23.746Z,9.95
2023-08-21T09:45:27.376Z,13.23
2023-08-21T09:48:30.820Z,9.48
2023-08-21T09:51:38.670Z,9.10
2023-08-21T09:54:44.920Z,10.20
2023-08-21T09:58:01.182Z,10.68
2023-08-21T10:01:12.810Z,9.93
2023-08-21T10:04:24.961Z,12.18
2023-08-21T10:07:30.791Z,8.02
2023-08-21T10:10:36.828Z,9.18
2023-08-21T10:13:47.362Z,13.07
2023-08-21T10:16:50.428Z,8.38
2023-08-21T10:19:54.784Z,10.80
2023-08-21T10:23:07.260Z,12.05
2023-08-21T10:26:12.370Z,12.13
2023-08-21T10:29:15.314Z,12.68
2023-08-21T10:32:24.825Z,10.50
2023-08-21T10:35:31.222Z,10.23
2023-08-21T10:39:02.953Z,13.70
2023-08-21T10:42:07.553Z,11.73
2023-08-21T10:45:14.008Z,11.30
2023-08-21T10:48:16.974Z,15.68
2023-08-21T10:51:19.887Z,8.88
2023-08-21T10:54:27.811Z,13.43
2023-08-21T10:57:35.028Z,13.15
2023-08-21T11:00:41.093Z,12.70
2023-08-21T11:03:48.564Z,11.20
2023-08-21T11:06:53.650Z,16.60
2023-08-21T11:09:58.471Z,11.88
2023-08-21T11:13:01.632Z,14.60
2023-08-21T11:16:06.344Z,10.43
2023-08-21T11:19:09.339Z,8.30
2023-08-21T11:22:13.486Z,7.75
2023-08-21T11:25:18.698Z,9.00
2023-08-21T11:28:22.124Z,11.20
2023-08-21T11:31:25.325Z,13.32
2023-08-21T11:34:28.240Z,12.05
2023-08-21T11:37:31.190Z,11.50
2023-08-21T11:40:41.246Z,13.50
2023-08-21T11:43:45.698Z,13.45
2023-08-21T11:46:48.762Z,11.05
2023-08-21T11:49:52.572Z,10.85
2023-08-21T11:52:55.579Z,11.82
2023-08-21T11:56:02.788Z,9.25
2023-08-21T11:59:06.961Z,8.63
2023-08-21T12:02:20.987Z,8.73
2023-08-21T12:05:26.026Z,8.38
2023-08-21T12:08:31.671Z,9.45
2023-08-21T12:11:36.688Z,11.60
2023-08-21T12:14:40.856Z,11.35
2023-08-21T12:17:43.789Z,8.30
2023-08-21T12:20:46.816Z,10.88
2023-08-21T12:23:52.398Z,7.22
2023-08-21T12:26:56.854Z,9.27
2023-08-21T12:29:59.812Z,7.72
2023-08-21T12:33:09.373Z,7.32
2023-08-21T12:36:23.697Z,7.78
2023-08-21T12:39:26.629Z,7.82
2023-08-21T12:42:30.949Z,6.68
2023-08-21T12:45:33.909Z,8.20
2023-08-21T12:48:39.990Z,7.72
2023-08-21T12:51:42.850Z,7.63
2023-08-21T12:54:46.871Z,9.57
2023-08-21T12:57:54.306Z,7.00
2023-08-21T13:00:57.295Z,6.20
2023-08-21T13:04:00.416Z,10.40
2023-08-21T13:07:04.702Z,6.22
2023-08-21T13:10:08.999Z,6.93
2023-08-21T13:13:13.930Z,6.03
2023-08-21T13:16:16.931Z,5.40
2023-08-21T13:19:20.196Z,7.57
2023-08-21T13:22:23.512Z,5.20
2023-08-21T13:25:26.810Z,4.88
2023-08-21T13:28:32.477Z,5.53
2023-08-21T13:31:38.486Z,5.68
2023-08-21T13:34:44.860Z,3.60
2023-08-21T13:37:48.248Z,4.15
2023-08-21T13:40:51.501Z,4.63
2023-08-21T13:44:00.102Z,4.53
2023-08-21T13:47:03.182Z,7.95
2023-08-21T13:50:11.067Z,4.60
2023-08-21T13:53:14.014Z,4.10
2023-08-21T13:56:16.910Z,5.80
2023-08-21T13:59:21.351Z,3.85
2023-08-21T14:02:24.549Z,4.25
2023-08-21T14:05:32.907Z,5.47
2023-08-21T14:08:36.275Z,3.95
2023-08-21T14:11:39.330Z,3.38
2023-08-21T14:14:44.846Z,4.45
2023-08-21T14:17:47.800Z,6.85
2023-08-21T14:20:51.000Z,5.57
2023-08-21T14:23:56.802Z,4.05
2023-08-21T14:26:59.871Z,5.28
2023-08-21T14:30:05.888Z,6.93
2023-08-21T14:33:10.379Z,5.90
2023-08-21T14:36:16.004Z,5.35
2023-08-21T14:39:19.737Z,5.18
2023-08-21T14:42:27.486Z,6.25
2023-08-21T14:45:37.911Z,4.82
2023-08-21T14:48:45.494Z,4.05
2023-08-21T14:51:48.725Z,5.47
2023-08-21T14:54:53.836Z,6.80
2023-08-21T14:57:56.795Z,3.50
2023-08-21T15:01:02.567Z,7.18
2023-08-21T15:04:05.800Z,6.05
2023-08-21T15:07:11.805Z,7.93
2023-08-21T15:10:25.226Z,5.72
2023-08-21T15:13:30.307Z,11.68
2023-08-21T15:16:37.908Z,16.00
2023-08-21T15:19:44.241Z,10.73
2023-08-21T15:22:47.173Z,5.10
2023-08-21T15:25:50.178Z,5.40
2023-08-21T15:28:53.480Z,6.05
2023-08-21T15:31:57.818Z,3.25
2023-08-21T15:35:05.880Z,5.32
2023-08-21T15:38:12.286Z,3.65
2023-08-21T15:41:15.367Z,3.85
2023-08-21T15:44:18.304Z,4.60
2023-08-21T15:47:45.409Z,5.82
2023-08-21T15:50:48.251Z,8.98
2023-08-21T15:53:56.651Z,8.10
2023-08-21T15:56:59.603Z,5.57
2023-08-21T16:00:02.514Z,7.13
2023-08-21T16:03:10.079Z,4.20
2023-08-21T16:06:13.216Z,5.60
2023-08-21T16:09:16.221Z,4.13
2023-08-21T16:12:19.110Z,2.53
2023-08-21T16:15:22.128Z,3.15
2023-08-21T16:18:29.226Z,5.88
2023-08-21T16:21:32.926Z,7.55
2023-08-21T16:24:38.584Z,4.13
2023-08-21T16:27:41.962Z,3.70
2023-08-21T16:30:44.926Z,4.53
2023-08-21T16:33:55.386Z,6.32
2023-08-21T16:37:02.038Z,5.13
2023-08-21T16:40:07.873Z,3.10
2023-08-21T16:43:14.369Z,4.05
2023-08-21T16:46:22.858Z,6.03
2023-08-21T16:49:29.998Z,6.38
2023-08-21T16:52:33.150Z,9.63
2023-08-21T16:55:36.181Z,4.90
2023-08-21T16:58:40.487Z,6.47
2023-08-21T17:01:45.310Z,7.95
2023-08-21T17:04:50.325Z,7.30
2023-08-21T17:07:56.344Z,7.38
2023-08-21T17:11:02.818Z,4.88
2023-08-21T17:14:11.382Z,3.80
2023-08-21T17:17:14.923Z,5.40
2023-08-21T17:20:22.557Z,5.50
2023-08-21T17:23:26.049Z,5.22
2023-08-21T17:26:29.655Z,5.65
2023-08-21T17:29:36.651Z,5.93
2023-08-21T17:32:41.198Z,7.80
2023-08-21T17:35:52.377Z,5.13
2023-08-21T17:38:55.955Z,5.35
2023-08-21T17:42:03.711Z,7.05
2023-08-21T17:45:09.552Z,7.30
2023-08-21T17:48:19.924Z,5.30
2023-08-21T17:51:24.434Z,8.10
2023-08-21T17:54:28.559Z,5.07
2023-08-21T17:57:31.954Z,7.70
2023-08-21T18:00:35.554Z,5.10
2023-08-21T18:03:39.508Z,7.55
2023-08-21T18:06:48.245Z,9.02
2023-08-21T18:09:52.715Z,6.03
2023-08-21T18:12:55.899Z,6.18
2023-08-21T18:15:59.547Z,8.38
2023-08-21T18:19:04.305Z,5.82
2023-08-21T18:22:10.065Z,4.95
2023-08-21T18:25:14.802Z,9.75
2023-08-21T18:28:24.257Z,5.57
2023-08-21T18:31:28.183Z,5.60
2023-08-21T18:34:35.180Z,7.22
2023-08-21T18:37:43.766Z,6.25
2023-08-21T18:40:49.809Z,6.97
2023-08-21T18:43:54.633Z,6.00
2023-08-21T18:46:58.994Z,5.70
2023-08-21T18:50:02.773Z,4.93
2023-08-21T18:53:09.598Z,8.90
2023-08-21T18:56:14.146Z,5.80
2023-08-21T18:59:24.009Z,9.32
2023-08-21T19:02:27.727Z,7.43
2023-08-21T19:05:32.796Z,10.38
2023-08-21T19:08:39.586Z,5.35
2023-08-21T19:11:45.769Z,8.65
2023-08-21T19:14:50.837Z,7.88
2023-08-21T19:17:54.204Z,8.55
2023-08-21T19:21:01.532Z,9.73
2023-08-21T19:24:08.704Z,7.28
2023-08-21T19:27:13.581Z,8.45
2023-08-21T19:30:18.211Z,10.45
2023-08-21T19:33:25.194Z,7.88
2023-08-21T19:36:29.945Z,7.65
2023-08-21T19:39:35.957Z,8.80
2023-08-21T19:42:44.220Z,8.82
2023-08-21T19:45:59.487Z,9.50
2023-08-21T19:49:05.772Z,10.13
2023-08-21T19:52:11.104Z,8.90
2023-08-21T19:55:17.290Z,8.05
2023-08-21T19:58:24.963Z,9.75
2023-08-21T20:01:28.547Z,8.07
2023-08-21T20:04:32.604Z,9.57
2023-08-21T20:07:36.279Z,5.97
2023-08-21T20:10:43.432Z,10.35
2023-08-21T20:13:49.331Z,9.18
2023-08-21T20:16:53.219Z,8.30
2023-08-21T20:19:59.803Z,8.88
2023-08-21T20:23:03.501Z,8.57
2023-08-21T20:26:08.693Z,6.78
2023-08-21T20:29:13.076Z,10.02
2023-08-21T20:32:19.646Z,9.07
2023-08-21T20:35:28.998Z,9.23
2023-08-21T20:38:32.931Z,8.18
2023-08-21T20:41:41.019Z,12.65
2023-08-21T20:44:47.185Z,10.43
2023-08-21T20:47:51.914Z,8.00
2023-08-21T20:50:58.786Z,10.60
2023-08-21T20:54:02.529Z,9.73
2023-08-21T20:57:09.344Z,11.68
2023-08-21T21:00:13.433Z,8.75
2023-08-21T21:03:16.640Z,8.40
2023-08-21T21:06:19.618Z,8.95
2023-08-21T21:09:22.978Z,11.98
2023-08-21T21:12:40.304Z,8.43
2023-08-21T21:15:44.802Z,12.23
2023-08-21T21:18:49.140Z,12.02
2023-08-21T21:21:52.114Z,6.88
2023-08-21T21:24:55.261Z,12.20
2023-08-21T21:28:05.628Z,9.55
2023-08-21T21:31:08.879Z,14.43
2023-08-21T21:34:15.003Z,11.25
2023-08-21T21:37:20.816Z,8.63
2023-08-21T21:40:23.699Z,8.32
2023-08-21T21:43:29.240Z,9.07
2023-08-21T21:46:35.462Z,8.88
2023-08-21T21:49:38.457Z,7.28
2023-08-21T21:52:41.502Z,12.40
2023-08-21T21:55:44.459Z,12.40
2023-08-21T21:58:50.302Z,10.65
2023-08-21T22:01:53.335Z,10.93
2023-08-21T22:04:59.214Z,6.80
2023-08-21T22:08:02.614Z,7.53
2023-08-21T22:11:06.982Z,6.80
2023-08-21T22:14:11.372Z,10.85
2023-08-21T22:17:14.756Z,10.60
2023-08-21T22:20:18.036Z,10.02
2023-08-21T22:23:21.876Z,12.45
2023-08-21T22:26:27.706Z,8.05
2023-08-21T22:29:33.836Z,7.18
2023-08-21T22:32:37.120Z,10.13
2023-08-21T22:35:40.118Z,11.70
2023-08-21T22:38:46.376Z,10.32
2023-08-21T22:41:49.925Z,10.20
2023-08-21T22:44:55.171Z,9.90
2023-08-21T22:47:58.191Z,9.88
2023-08-21T22:51:05.273Z,8.65
2023-08-21T22:54:08.321Z,9.13
2023-08-21T22:57:14.396Z,10.90
2023-08-21T23:00:22.045Z,8.68
2023-08-21T23:03:25.036Z,9.65
2023-08-21T23:06:27.982Z,11.43
2023-08-21T23:09:33.967Z,9.13
2023-08-21T23:12:44.114Z,12.63
2023-08-21T23:15:49.583Z,9.70
2023-08-21T23:18:58.644Z,9.25
2023-08-21T23:22:01.630Z,8.80
2023-08-21T23:25:05.544Z,10.48
2023-08-21T23:28:09.869Z,9.65
2023-08-21T23:31:14.327Z,13.32
2023-08-21T23:34:19.472Z,12.73
2023-08-21T23:37:22.456Z,10.68
2023-08-21T23:40:30.173Z,19.65
2023-08-21T23:43:36.842Z,15.20
2023-08-21T23:46:44.459Z,12.98
2023-08-21T23:49:47.389Z,17.90
2023-08-21T23:52:50.240Z,14.13
2023-08-21T23:55:54.994Z,16.63
2023-08-21T23:59:02.190Z,10.80
